Strona główna
METAR-TAF:

METAR-TAF

Lotnisko :

Port lotniczy Koror

Koror, Babeldaob, Palau

Szerokość geograficzna: 07-22N, Długość geograficzna: 134-32E, wysokość: 54 m

Aktualna obserwacja pogody

Raport powstał 57 minut temu, godzina 18:52 UTC
Cisza
Temperatura 25°C
Wilgotność 94%
Ciśnienie 1009 hPa
Widzialność: 24.1 km
Rozproszone chmury na wysokości 1600 ft
Przerywane chmury na wysokości 30000 ft

METAR: PTRO 251852Z 00000KT 15SM SCT016 BKN300 25/24 A2980

czas: 04:49 (19:49 UTC)

Prognoza

Raport powstał 2 godziny i 15 minut temu, godzina 17:34 UTC
Prognoza ważna od 25 godzina 18 UTC do 26 godzina 18 UTC
Wiatr 5 kt z kierunków zmiennych
Widzialność: 10 km
Rozproszone chmury na wysokości 1600 ft
Przerywane chmury na wysokości 12000 ft
przelotny w pobliże
Przejściowo
od 26 godzina 00 UTC do 26 godzina 04 UTC
Widzialność: 8.0 km
Przerywane chmury na wysokości 1400 ft
Zachmurzenie całkowite na wysokości 8000 ft
przelotny opad deszczu

TAF: PTRO 251734Z 2518/2618 VRB05KT P6SM VCSH SCT016 BKN120 TEMPO 2600/2604 5SM SHRA BKN014 OVC080

Obserwacja i prognoza pogody dla ponad 4000 lotnisk (raport METAR i TAF).

Dostępne stacje oznaczono żółtymi i czerwonymi punktami na mapie.

Najedź kursorem aby zobaczyć nazwę stacji.

Kliknij aby zobaczyć obserwacje i prognozy pogody.

Aby zmienić mapę: kliknij na zielony przycisk z czarnym krzyżykiem, aby powiększyć; na zielony przycisk z myślnikiem, aby pomniejszyć; na zielone strzałki, aby przejść do map sąsiednich.


METAR-TAF: